| time (UTC) | temp C | wind direction | speed KPH | gust KPH | rain 1hr cm | rain 24hr cm | rain mn cm | humidity % | barometer mb |
| 20260507171543 | 20 | 17 | 1.6 | 9.7 | 0.00 | 3.56 | 2.59 | 93 | 1009.9 |
| 20260507170030 | 20 | 338 | 0.0 | 16.1 | 0.00 | 3.56 | 2.59 | 95 | 1009.9 |
| 20260507164534 | 19 | 5 | 0.0 | 6.4 | 0.00 | 3.56 | 2.59 | 96 | 1010.1 |
| 20260507163038 | 19 | 355 | 1.6 | 6.4 | 0.00 | 3.56 | 2.59 | 97 | 1010.0 |
| 20260507161547 | 18 | 18 | 0.0 | 3.2 | 0.00 | 3.56 | 2.59 | 97 | 1010.0 |
| 20260507160026 | 18 | 341 | 0.0 | 0.0 | 0.03 | 3.56 | 2.59 | 97 | 1009.6 |
| 20260507154526 | 18 | 340 | 0.0 | 1.6 | 0.10 | 3.56 | 2.59 | 97 | 1009.8 |
| 20260507153028 | 17 | 340 | 0.0 | 0.0 | 0.10 | 3.56 | 2.59 | 97 | 1009.7 |
| 20260507151534 | 17 | 340 | 0.0 | 1.6 | 0.13 | 3.56 | 2.59 | 97 | 1010.3 |
| 20260507150034 | 17 | 340 | 0.0 | 0.0 | 0.10 | 3.53 | 2.57 | 97 | 1010.2 |
| 20260507144527 | 17 | 340 | 0.0 | 0.0 | 0.03 | 3.45 | 2.49 | 97 | 1010.1 |
| 20260507143038 | 17 | 340 | 0.0 | 0.0 | 0.08 | 3.45 | 2.49 | 97 | 1009.8 |
| 20260507141547 | 17 | 340 | 0.0 | 3.2 | 0.10 | 3.43 | 2.46 | 97 | 1010.6 |
| 20260507140023 | 17 | 336 | 0.0 | 0.0 | 0.38 | 3.43 | 2.46 | 97 | 1009.4 |
| 20260507134526 | 17 | 336 | 0.0 | 0.0 | 0.51 | 3.43 | 2.46 | 97 | 1009.7 |
| 20260507133057 | 17 | 336 | 0.0 | 3.2 | 0.58 | 3.38 | 2.41 | 97 | 1010.3 |
| 20260507131543 | 16 | 142 | 0.0 | 0.0 | 0.79 | 3.33 | 2.36 | 96 | 1010.0 |
| 20260507130023 | 17 | 146 | 0.0 | 6.4 | 0.66 | 3.05 | 2.08 | 97 | 1010.6 |
| 20260507124528 | 17 | 10 | 0.0 | 3.2 | 0.53 | 2.90 | 1.96 | 96 | 1010.4 |
| 20260507123038 | 17 | 10 | 0.0 | 3.2 | 0.41 | 2.79 | 1.83 | 97 | 1009.4 |
| 20260507121534 | 17 | 10 | 0.0 | 4.8 | 0.13 | 2.51 | 1.55 | 96 | 1009.5 |
| 20260507120021 | 18 | 212 | 0.0 | 1.6 | 0.00 | 2.39 | 1.42 | 97 | 1008.8 |
| 20260507114525 | 18 | 212 | 0.0 | 3.2 | 0.05 | 2.39 | 1.42 | 97 | 1008.6 |
| 20260507113035 | 18 | 229 | 0.0 | 9.7 | 0.08 | 2.39 | 1.42 | 97 | 1008.5 |
| 20260507111536 | 18 | 212 | 0.0 | 16.1 | 0.13 | 2.39 | 1.42 | 97 | 1007.7 |
| 20260507110029 | 18 | 220 | 0.0 | 6.4 | 0.25 | 2.39 | 1.42 | 97 | 1007.6 |
| 20260507104529 | 18 | 188 | 0.0 | 4.8 | 0.28 | 2.34 | 1.37 | 97 | 1008.2 |
| 20260507103038 | 18 | 224 | 0.0 | 6.4 | 0.33 | 2.31 | 1.35 | 97 | 1008.4 |
| 20260507101539 | 18 | 251 | 0.0 | 6.4 | 0.28 | 2.26 | 1.30 | 97 | 1008.4 |
| 20260507100025 | 18 | 223 | 0.0 | 1.6 | 0.18 | 2.13 | 1.17 | 97 | 1008.9 |
| 20260507094534 | 18 | 328 | 0.0 | 0.0 | 0.10 | 2.06 | 1.09 | 97 | 1009.0 |
| 20260507093034 | 18 | 328 | 0.0 | 0.0 | 0.03 | 1.98 | 1.02 | 97 | 1009.3 |
| 20260507091537 | 18 | 328 | 0.0 | 0.0 | 0.08 | 1.98 | 1.02 | 96 | 1009.6 |
| 20260507090025 | 18 | 328 | 0.0 | 0.0 | 0.05 | 1.96 | 0.99 | 96 | 1009.9 |
| 20260507084529 | 18 | 328 | 0.0 | 0.0 | 0.05 | 1.96 | 0.99 | 96 | 1009.8 |
| 20260507083035 | 18 | 328 | 0.0 | 0.0 | 0.05 | 1.96 | 0.99 | 96 | 1010.0 |
| 20260507081540 | 18 | 328 | 0.0 | 1.6 | 0.03 | 1.91 | 0.94 | 96 | 1010.0 |
| 20260507080024 | 18 | 328 | 0.0 | 0.0 | 0.05 | 1.91 | 0.94 | 96 | 1010.2 |
| 20260507074530 | 18 | 328 | 0.0 | 0.0 | 0.05 | 1.91 | 0.94 | 96 | 1009.9 |
| 20260507073036 | 18 | 328 | 0.0 | 0.0 | 0.05 | 1.91 | 0.94 | 96 | 1009.6 |
| 20260507071540 | 18 | 328 | 0.0 | 0.0 | 0.03 | 1.88 | 0.91 | 96 | 1009.5 |
| 20260507070039 | 18 | 328 | 0.0 | 0.0 | 0.10 | 1.85 | 0.89 | 96 | 1009.7 |
| 20260507064533 | 18 | 328 | 0.0 | 0.0 | 0.51 | 1.85 | 0.89 | 96 | 1010.5 |
| 20260507063036 | 18 | 328 | 0.0 | 0.0 | 0.76 | 1.85 | 0.89 | 96 | 1010.9 |
| 20260507061537 | 18 | 328 | 0.0 | 0.0 | 0.84 | 1.85 | 0.89 | 96 | 1011.2 |
| 20260507060019 | 18 | 328 | 0.0 | 1.6 | 0.76 | 1.73 | 0.76 | 96 | 1011.1 |
| 20260507054515 | 18 | 329 | 0.0 | 0.0 | 0.36 | 1.32 | 0.36 | 96 | 1012.1 |
| 20260507053016 | 18 | 329 | 0.0 | 1.6 | 0.13 | 1.09 | 0.13 | 96 | 1011.7 |
| 20260507051521 | 18 | 329 | 0.0 | 3.2 | 0.05 | 1.02 | 0.05 | 96 | 1011.4 |
| 20260507050020 | 18 | 262 | 0.0 | 0.0 | 0.00 | 0.97 | 0.00 | 96 | 1011.4 |
| 20260507044511 | 18 | 262 | 0.0 | 0.0 | 0.00 | 0.97 | 0.97 | 95 | 1011.1 |
| 20260507043013 | 18 | 263 | 0.0 | 0.0 | 0.05 | 0.97 | 0.97 | 95 | 1011.8 |
| 20260507041517 | 18 | 263 | 0.0 | 0.0 | 0.05 | 0.97 | 0.97 | 95 | 1012.0 |
| 20260507040004 | 18 | 263 | 0.0 | 0.0 | 0.05 | 0.97 | 0.97 | 95 | 1012.3 |
| 20260507034508 | 18 | 262 | 0.0 | 1.6 | 0.05 | 0.94 | 0.94 | 94 | 1012.0 |
| 20260507033014 | 19 | 351 | 0.0 | 0.0 | 0.05 | 0.91 | 0.91 | 94 | 1012.1 |
| 20260507031605 | 20 | 351 | 0.0 | 0.0 | 0.08 | 0.91 | 0.91 | 94 | 1012.1 |
| 20260507030105 | 20 | 351 | 0.0 | 0.0 | 0.15 | 0.91 | 0.91 | 94 | 1012.1 |
| 20260507024608 | 21 | 351 | 0.0 | 0.0 | 0.15 | 0.89 | 0.89 | 94 | 1012.0 |
| 20260507023049 | 21 | 351 | 0.0 | 0.0 | 0.25 | 0.86 | 0.86 | 94 | 1012.1 |
| 20260507021557 | 21 | 351 | 0.0 | 0.0 | 0.25 | 0.84 | 0.84 | 94 | 1011.9 |
| 20260507020053 | 21 | 351 | 0.0 | 3.2 | 0.23 | 0.76 | 0.76 | 93 | 1012.0 |
| 20260507014554 | 21 | 355 | 0.0 | 0.0 | 0.36 | 0.71 | 0.71 | 93 | 1012.0 |
| 20260507013058 | 21 | 355 | 0.0 | 0.0 | 0.53 | 0.61 | 0.61 | 92 | 1011.5 |
| 20260507011557 | 21 | 355 | 0.0 | 0.0 | 0.58 | 0.58 | 0.58 | 91 | 1011.5 |
| 20260507010045 | 21 | 355 | 0.0 | 0.0 | 0.53 | 0.53 | 0.53 | 89 | 1011.6 |
| 20260507004547 | 22 | 351 | 0.0 | 12.9 | 0.38 | 0.38 | 0.38 | 86 | 1011.4 |
| 20260507003056 | 24 | 84 | 0.0 | 0.0 | 0.05 | 0.05 | 0.05 | 77 | 1011.0 |
| 20260507001602 | 25 | 88 | 0.0 | 1.6 | 0.00 | 0.00 | 0.00 | 73 | 1010.2 |
| 20260507000043 | 26 | 221 | 0.0 | 6.4 | 0.00 | 0.00 | 0.00 | 69 | 1010.2 |
| 20260506234554 | 26 | 226 | 0.0 | 4.8 | 0.00 | 0.00 | 0.00 | 67 | 1010.0 |
| 20260506233051 | 26 | 232 | 0.0 | 6.4 | 0.00 | 0.00 | 0.00 | 65 | 1010.5 |
| 20260506231554 | 26 | 294 | 0.0 | 3.2 | 0.00 | 0.00 | 0.00 | 64 | 1010.7 |
| 20260506230037 | 27 | 222 | 0.0 | 4.8 | 0.00 | 0.00 | 0.00 | 63 | 1010.5 |
| 20260506224543 | 27 | 5 | 0.0 | 4.8 | 0.00 | 0.00 | 0.00 | 61 | 1010.7 |
| 20260506223047 | 27 | 188 | 0.0 | 12.9 | 0.00 | 0.00 | 0.00 | 61 | 1010.7 |
| 20260506221551 | 27 | 199 | 0.0 | 12.9 | 0.00 | 0.00 | 0.00 | 60 | 1010.4 |
| 20260506220038 | 27 | 16 | 0.0 | 11.3 | 0.00 | 0.00 | 0.00 | 59 | 1010.5 |
| 20260506214546 | 27 | 208 | 0.0 | 4.8 | 0.00 | 0.00 | 0.00 | 59 | 1010.4 |
| 20260506213048 | 27 | 210 | 1.6 | 16.1 | 0.00 | 0.00 | 0.00 | 57 | 1010.7 |
| 20260506211552 | 28 | 351 | 1.6 | 22.5 | 0.00 | 0.00 | 0.00 | 55 | 1010.7 |
| 20260506210037 | 27 | 9 | 1.6 | 11.3 | 0.00 | 0.00 | 0.00 | 55 | 1011.1 |
| 20260506204542 | 27 | 219 | 0.0 | 8.0 | 0.00 | 0.00 | 0.00 | 57 | 1011.3 |
| 20260506203040 | 28 | 355 | 0.0 | 16.1 | 0.00 | 0.00 | 0.00 | 53 | 1011.4 |
| 20260506201540 | 29 | 5 | 0.0 | 16.1 | 0.00 | 0.00 | 0.00 | 54 | 1011.4 |
| 20260506200026 | 29 | 355 | 4.8 | 16.1 | 0.00 | 0.00 | 0.00 | 52 | 1011.9 |
| 20260506194531 | 28 | 355 | 1.6 | 8.0 | 0.00 | 0.00 | 0.00 | 53 | 1012.1 |
| 20260506193036 | 28 | 227 | 1.6 | 9.7 | 0.00 | 0.00 | 0.00 | 51 | 1012.2 |
| 20260506191539 | 28 | 227 | 0.0 | 9.7 | 0.00 | 0.00 | 0.00 | 52 | 1012.4 |
| 20260506190025 | 28 | 195 | 0.0 | 16.1 | 0.00 | 0.00 | 0.00 | 53 | 1012.7 |
| 20260506184535 | 28 | 15 | 0.0 | 6.4 | 0.00 | 0.00 | 0.00 | 53 | 1013.0 |
| 20260506183035 | 28 | 117 | 0.0 | 11.3 | 0.00 | 0.00 | 0.00 | 53 | 1012.8 |
| 20260506181538 | 27 | 241 | 0.0 | 8.0 | 0.00 | 0.00 | 0.00 | 56 | 1012.6 |
| 20260506180028 | 27 | 11 | 1.6 | 12.9 | 0.00 | 0.00 | 0.00 | 55 | 1012.9 |
| 20260506174529 | 26 | 233 | 3.2 | 12.9 | 0.00 | 0.00 | 0.00 | 59 | 1012.8 |
| 20260506173047 | 26 | 350 | 0.0 | 14.5 | 0.00 | 0.00 | 0.00 | 57 | 1013.2 |